createdAt,value
2023-05-09T00:08:48.529Z,100702.03
2023-05-09T00:18:50.859Z,100692.44
2023-05-09T00:28:53.148Z,100681.41
2023-05-09T00:38:55.456Z,100680.13
2023-05-09T00:48:57.772Z,100655.19
2023-05-09T00:58:59.982Z,100645.84
2023-05-09T01:09:20.985Z,100629.47
2023-05-09T01:19:47.536Z,100617.06
2023-05-09T01:29:57.273Z,100608.03
2023-05-09T01:40:06.133Z,100609.97
2023-05-09T01:50:09.567Z,100597.41
2023-05-09T02:00:13.659Z,100586.22
2023-05-09T02:10:15.798Z,100595.88
2023-05-09T02:20:18.143Z,100586.28
2023-05-09T02:30:25.071Z,100582.56
2023-05-09T02:40:28.176Z,100580.38
2023-05-09T02:50:30.394Z,100579.84
2023-05-09T03:00:32.518Z,100575.72
2023-05-09T03:10:34.661Z,100568.47
2023-05-09T03:20:37.751Z,100569.91
2023-05-09T03:30:39.933Z,100544.03
2023-05-09T03:40:46.311Z,100528.25
2023-05-09T03:50:48.448Z,100530.88
2023-05-09T04:00:51.182Z,100545.50
2023-05-09T04:10:57.613Z,100535.66
2023-05-09T04:20:59.988Z,100528.72
2023-05-09T04:31:02.948Z,100517.66
2023-05-09T04:41:07.055Z,100515.31
2023-05-09T04:51:09.323Z,100505.41
2023-05-09T05:01:11.440Z,100490.31
2023-05-09T05:11:14.690Z,100477.66
2023-05-09T05:21:17.185Z,100482.75
2023-05-09T05:31:21.362Z,100473.56
2023-05-09T05:41:23.570Z,100468.38
2023-05-09T05:51:26.073Z,100460.28
2023-05-09T06:01:28.818Z,100462.66
2023-05-09T06:11:33.020Z,100454.72
2023-05-09T06:21:35.668Z,100442.06
2023-05-09T06:31:38.969Z,100430.59
2023-05-09T06:41:41.258Z,100416.56
2023-05-09T06:51:43.404Z,100401.31
2023-05-09T07:01:45.488Z,100387.94
2023-05-09T07:11:47.820Z,100378.78
2023-05-09T07:21:50.160Z,100365.22
2023-05-09T07:31:52.292Z,100352.38
2023-05-09T07:41:54.386Z,100331.41
2023-05-09T07:51:56.491Z,100336.19
2023-05-09T08:01:58.615Z,100314.06
2023-05-09T08:12:00.715Z,100302.47
2023-05-09T08:22:03.372Z,100290.91
2023-05-09T08:32:05.752Z,100278.28
2023-05-09T08:42:09.076Z,100270.94
2023-05-09T08:52:11.942Z,100264.44
2023-05-09T09:02:14.655Z,100256.94
2023-05-09T09:12:17.916Z,100241.81
2023-05-09T09:22:20.783Z,100227.53
2023-05-09T09:32:32.712Z,100211.13
2023-05-09T09:42:48.057Z,100197.34
2023-05-09T09:52:55.970Z,100189.31
2023-05-09T10:02:58.995Z,100180.25
2023-05-09T10:13:11.873Z,100168.28
2023-05-09T10:23:15.949Z,100149.22
2023-05-09T10:33:21.605Z,100128.75
2023-05-09T10:43:25.171Z,100110.44
2023-05-09T10:53:57.842Z,100115.09
2023-05-09T11:04:00.705Z,100083.25
2023-05-09T11:14:02.907Z,100072.53
2023-05-09T11:24:16.769Z,100060.25
2023-05-09T11:34:19.944Z,100048.06
2023-05-09T11:44:22.295Z,100027.38
2023-05-09T11:54:25.147Z,100026.41
2023-05-09T12:04:29.104Z,100000.59
2023-05-09T12:14:33.323Z,99995.75
2023-05-09T12:24:36.622Z,99980.69
2023-05-09T12:34:38.775Z,99955.22
2023-05-09T12:44:41.937Z,99951.06
2023-05-09T12:54:46.190Z,99940.28
2023-05-09T13:04:48.232Z,99925.63
2023-05-09T13:14:50.507Z,99907.69
2023-05-09T13:24:53.169Z,99887.50
2023-05-09T13:34:55.812Z,99878.38
2023-05-09T13:44:57.950Z,99868.03
2023-05-09T13:55:00.136Z,99853.69
2023-05-09T14:05:03.102Z,99863.13
2023-05-09T14:15:07.620Z,99845.19
2023-05-09T14:25:10.019Z,99840.38
2023-05-09T14:35:12.174Z,99828.94
2023-05-09T14:45:15.381Z,99854.69
2023-05-09T14:55:18.271Z,99852.31
2023-05-09T15:05:20.387Z,99829.72
2023-05-09T15:15:23.987Z,99810.31
2023-05-09T15:25:26.183Z,99825.03
2023-05-09T15:35:28.303Z,99800.41
2023-05-09T15:45:30.360Z,99794.66
2023-05-09T15:55:32.963Z,99825.78
2023-05-09T16:05:35.021Z,99822.03
2023-05-09T16:15:37.109Z,99828.91
2023-05-09T16:25:39.180Z,99820.69
2023-05-09T16:35:41.373Z,99826.78
2023-05-09T16:45:43.591Z,99825.34
2023-05-09T16:55:46.533Z,99814.03
2023-05-09T17:05:48.667Z,99813.03
2023-05-09T17:15:52.522Z,99804.06
2023-05-09T17:25:54.659Z,99791.34
2023-05-09T17:35:57.661Z,99798.81
2023-05-09T17:46:03.385Z,99786.25
2023-05-09T17:56:05.449Z,99782.75
2023-05-09T18:06:07.494Z,99773.69
2023-05-09T18:16:09.708Z,99762.06
2023-05-09T18:26:11.914Z,99759.59
2023-05-09T18:36:15.056Z,99751.72
2023-05-09T18:46:17.908Z,99750.47
2023-05-09T18:56:23.109Z,99743.00
2023-05-09T19:06:26.149Z,99730.84
2023-05-09T19:16:28.382Z,99736.44
2023-05-09T19:26:30.605Z,99753.78
2023-05-09T19:36:34.424Z,99761.44
2023-05-09T19:46:38.007Z,99762.50
2023-05-09T19:56:40.477Z,99752.97
2023-05-09T20:06:42.678Z,99754.25
2023-05-09T20:16:44.958Z,99741.38
2023-05-09T20:26:47.066Z,99737.06
2023-05-09T20:36:53.107Z,99723.38
2023-05-09T20:46:55.269Z,99716.56
2023-05-09T20:56:57.341Z,99714.94
2023-05-09T21:06:59.450Z,99716.75
2023-05-09T21:17:01.515Z,99714.28
2023-05-09T21:27:03.551Z,99712.38
2023-05-09T21:37:05.631Z,99707.38
2023-05-09T21:47:07.762Z,99704.09
2023-05-09T21:57:09.906Z,99703.09
2023-05-09T22:07:11.969Z,99701.47
2023-05-09T22:17:14.017Z,99708.97
2023-05-09T22:27:16.036Z,99702.75
2023-05-09T22:37:18.046Z,99705.13
2023-05-09T22:47:20.994Z,99698.56
2023-05-09T22:57:23.719Z,99708.03
2023-05-09T23:07:25.796Z,99699.41
2023-05-09T23:17:27.902Z,99698.63
2023-05-09T23:27:31.186Z,99690.94
2023-05-09T23:37:33.239Z,99688.03
2023-05-09T23:47:35.312Z,99680.97
2023-05-09T23:57:37.345Z,99685.69
